Flight Track Log - Related Links

Times and Time Zones

All times are in EDT time to prevent confusion due to time zone crossing. See the N323MA flight status page for this flight to view local times or setup timezone preferences in your user account.

Time Position Orientation Groundspeed Altitude Reporting Facility
EDT Latitude Longitude Course Direction KTS MPH feet Rate Location/Type
Mon 05:45:08 PM 40.1500 -74.1333 113° Southeast 109 125 2,500  Level New York TRACON
Mon 05:46:08 PM 40.1167 -74.1500 201° Southwest 111 128 3,400 900 Climbing New York TRACON
Mon 05:47:08 PM 40.1000 -74.1833 237° Southwest 114 131 4,300 800 Climbing New York TRACON
Mon 05:48:08 PM 40.1167 -74.1667 37° Northeast 155 178 5,000 350 Climbing New York TRACON
Mon 05:49:08 PM 40.1500 -74.1333 37° Northeast 180 207 5,000  Level New York TRACON
Mon 05:50:00 PM 40.1421 -74.3093 113° Southeast  Level FlightAware Approximate
Mon 05:50:08 PM 40.2000 -74.1000 27° Northeast 183 211 5,000  Level New York TRACON
Mon 05:51:08 PM 40.2333 -74.0667 37° Northeast 183 211 5,000  Level New York TRACON
Mon 05:52:08 PM 40.2833 -74.0333 27° Northeast 183 211 5,000  Level New York TRACON
Mon 05:53:08 PM 40.3333 -74.0000 27° Northeast 184 212 5,000  Level New York TRACON
Mon 05:54:14 PM 40.3833 -73.9667 27° Northeast 185 213 5,000  Level New York TRACON
Mon 05:55:08 PM 40.4167 -73.9333 37° Northeast 185 213 5,000  Level New York TRACON
Mon 05:56:08 PM 40.4667 -73.9000 27° Northeast 187 215 5,000  Level New York TRACON
Mon 05:57:14 PM 40.5167 -73.8667 27° Northeast 186 214 5,000  Level New York TRACON
Mon 05:58:08 PM 40.5500 -73.8333 37° Northeast 184 212 5,000  Level New York TRACON
Mon 05:59:08 PM 40.6000 -73.8000 27° Northeast 181 208 5,000  Level New York TRACON
Mon 06:00:14 PM 40.6333 -73.7667 37° Northeast 164 189 5,000  Level New York TRACON
Mon 06:01:14 PM 40.6500 -73.7000 72° East 163 188 5,000 -550 Level New York TRACON
Mon 06:02:14 PM 40.6667 -73.6333 72° East 193 222 3,900 -900 Descending New York TRACON
Mon 06:03:14 PM 40.6667 -73.5667 90° East 190 219 3,200 -450 Descending New York TRACON
Mon 06:04:14 PM 40.6833 -73.5000 72° East 178 205 3,000 -50 Descending New York TRACON
Mon 06:05:14 PM 40.6833 -73.4333 90° East 166 191 3,100 50 Climbing New York TRACON
Mon 06:06:14 PM 40.7000 -73.3667 72° East 162 186 3,100  Level New York TRACON
Mon 06:07:14 PM 40.7000 -73.3167 90° East 165 190 3,100 -300 Level New York TRACON
Mon 06:08:14 PM 40.7333 -73.2667 49° Northeast 163 188 2,500 -571 Descending New York TRACON
Mon 06:09:20 PM 40.7667 -73.2167 49° Northeast 156 180 1,900 -600 Descending New York TRACON
Mon 06:10:14 PM 40.7833 -73.1833 57° Northeast 125 144 1,300 -421 Descending New York TRACON
Mon 06:11:14 PM 40.8167 -73.1667 21° North 107 123 1,100 -300 Descending New York TRACON
Mon 06:12:14 PM 40.8167 -73.1333 90° East 96 110 700 -400 Descending New York TRACON
Mon 06:14:00 PM 40.7952 -73.1002 61° Northeast  Level Estimated
Mon 06:21:00 PM 40.7952 -73.1002 237° Southwest  Level Estimated
Mon 06:22:00 PM 40.7952 -73.1002 179° South  Level Estimated

Login

Don't have an account? Register now (free) for customized features, flight alerts, and more!